Muddy Creek, North Carolina
Current Conditions -  °F | °C
As of 6:54 AM on Saturday 25 Oct 2014 (Local Time) from KINT Reporting Station
Clear Clear  
Wind Chill: 42°   Ceiling: Unl
Heat Index: 42°   Visibility: 10mi
Dew Point: 33°   Wind: 0mph
Humidity: 70%   Direction: NA
Pressure: 30.03"   Gusts: NA
Location:  36.0595°N, 80.3192°W
Report Text: KINT 251054Z 00000KT 10SM CLR 06/01 A3003 RMK AO2 SLP167 T00560006
Loading
Personal Weather Stations






























Interactive Weather Map
Tropical Storm Tracking
New forecast layout! Learn more

10-Day Weather Forecast

Advertisements
Track Severe Weather on mobile